Del Norte — WDC2280 — position and weather

sailwx.info

Track history (hours):
 
Tides and Currents Weather Stations Pressure Air Temp Water Temp Dewpoint Dewpoint Depression Visibility Wind Speed Wind Dir Waves Ship Positions

Del Norte

Owner: Golden Gate Bridge,Hwy & Transportation District, Larkspur, CA. More information available from US FCC via Universal Licensing System and Coast Guard Vessel Documentation Center.

Last reported at 2015-Aug-01 02:33 UTC. Time now 2015-Aug-02 12:25 UTC.
Position N 37°53' W 122°25'.

Length 48 m.

Type: High speed craft. MMSI: 366990520.

Date/timePositionNaut miles runAvg speedWind from/ knotsBaromVisibWave heightAir tempDewpointWater temp
2015-Aug-01 02:33N 37°53' W 122°25'6 6.0
2015-Aug-01 01:33N 37°57' W 122°30'8 7.5
2015-Aug-01 00:34N 37°51' W 122°25'3 3.0
2015-Jul-31 23:33N 37°48' W 122°24'1010.4
2015-Jul-31 22:33N 37°57' W 122°30'4 4.3
2015-Jul-31 21:34N 37°54' W 122°26'4 4.3
2015-Jul-31 20:33N 37°57' W 122°31'0 0.0
2015-Jul-31 19:33N 37°57' W 122°31'0 0.1
2015-Jul-31 18:33N 37°57' W 122°30'0 0.0
2015-Jul-31 17:33N 37°57' W 122°30'1 1.0
2015-Jul-31 16:33N 37°56' W 122°29'2 2.0
2015-Jul-31 15:34N 37°55' W 122°27'8 7.8
2015-Jul-31 14:33N 37°48' W 122°24'3 3.1
2015-Jul-31 13:33N 37°51' W 122°24'8 7.8
2015-Jul-31 12:33N 37°57' W 122°31'6 0.6
2015-Jul-31 02:33N 37°52' W 122°25'6 6.5
2015-Jul-31 01:33N 37°57' W 122°30'7 6.7
2015-Jul-31 00:34N 37°52' W 122°25'4 4.0
2015-Jul-30 23:34N 37°48' W 122°23'1010.4
2015-Jul-30 22:34N 37°57' W 122°30'4 4.2
2015-Jul-30 21:33N 37°54' W 122°27'4 4.2
2015-Jul-30 20:33N 37°57' W 122°31'9 8.6
2015-Jul-30 19:34N 37°50' W 122°23'9 8.5
2015-Jul-30 18:33N 37°57' W 122°30'6 6.5
2015-Jul-30 17:34N 37°52' W 122°25'5 4.8
2015-Jul-30 16:34N 37°56' W 122°28'0 0.4
2015-Jul-30 15:34N 37°56' W 122°28'9 8.6
2015-Jul-30 14:33N 37°48' W 122°24'4 3.9
2015-Jul-30 13:34N 37°52' W 122°24'7 7.1
2015-Jul-30 12:33N 37°57' W 122°31'6 0.6
2015-Jul-30 02:33N 37°52' W 122°25'6 6.3
2015-Jul-30 01:33N 37°57' W 122°30'6 5.9
2015-Jul-30 00:33N 37°53' W 122°25'4 3.8
2015-Jul-29 23:34N 37°49' W 122°23'9 9.3
2015-Jul-29 22:33N 37°57' W 122°30'2 1.7
2015-Jul-29 21:33N 37°56' W 122°28'2 1.8
2015-Jul-29 20:33N 37°57' W 122°31'1010.5
2015-Jul-29 19:33N 37°48' W 122°23'1010.4
2015-Jul-29 18:33N 37°57' W 122°30'5 4.5
2015-Jul-29 17:34N 37°54' W 122°26'3 2.6
2015-Jul-29 16:33N 37°56' W 122°28'0 0.1
2015-Jul-29 15:34N 37°56' W 122°28'9 8.8
2015-Jul-29 14:33N 37°48' W 122°24'4 3.7
2015-Jul-29 13:34N 37°51' W 122°24'7 7.2
2015-Jul-29 12:33N 37°57' W 122°31'10 1.3
2015-Jul-29 04:33N 37°48' W 122°24'1010.4
2015-Jul-29 03:33N 37°57' W 122°31'7 7.2
2015-Jul-29 02:34N 37°52' W 122°24'7 7.1
2015-Jul-29 01:33N 37°57' W 122°30'5 4.6
2015-Jul-29 00:34N 37°54' W 122°26'6 6.1
2015-Jul-28 23:34N 37°48' W 122°23'1010.4
2015-Jul-28 22:34N 37°57' W 122°30'3 2.7
2015-Jul-28 21:34N 37°55' W 122°28'3 2.7
2015-Jul-28 20:33N 37°57' W 122°30'8 8.1
2015-Jul-28 19:34N 37°51' W 122°24'8 8.1
2015-Jul-28 18:33N 37°57' W 122°30'5 5.2
2015-Jul-28 17:34N 37°53' W 122°26'3 2.6
2015-Jul-28 16:34N 37°55' W 122°28'3 2.5
2015-Jul-28 15:34N 37°57' W 122°30'7 7.0
2015-Jul-28 14:34N 37°51' W 122°25'3 2.5
2015-Jul-28 13:34N 37°49' W 122°23'10 9.6
2015-Jul-28 12:33N 37°57' W 122°31'6 0.6
2015-Jul-28 02:34N 37°52' W 122°25'6 6.4
2015-Jul-28 01:33N 37°57' W 122°30'5 5.0
2015-Jul-28 00:33N 37°53' W 122°26'6 5.8
2015-Jul-27 23:33N 37°48' W 122°23'1010.3
2015-Jul-27 22:33N 37°57' W 122°30'2 1.9
2015-Jul-27 21:34N 37°56' W 122°28'2 2.1
2015-Jul-27 20:33N 37°57' W 122°30'8 7.7
2015-Jul-27 19:34N 37°51' W 122°24'8 7.7
2015-Jul-27 18:33N 37°57' W 122°30'5 5.0
2015-Jul-27 17:34N 37°53' W 122°26'4 3.7
2015-Jul-27 16:34N 37°56' W 122°29'0 0.1
2015-Jul-27 15:33N 37°56' W 122°29'8 8.0
2015-Jul-27 14:34N 37°49' W 122°24'0 0.3
2015-Jul-27 13:34N 37°49' W 122°23'9 9.4
2015-Jul-27 12:33N 37°57' W 122°31'0 0.0
2015-Jul-27 04:11N 37°57' W 122°31'711.8
2015-Jul-27 03:34N 37°51' W 122°24'4 3.6
2015-Jul-27 02:33N 37°51' W 122°29'5 5.4
2015-Jul-27 01:33N 37°48' W 122°23'5 5.3
2015-Jul-27 00:34N 37°51' W 122°28'5 5.1
2015-Jul-26 23:34N 37°48' W 122°23'1 0.7
2015-Jul-26 22:33N 37°48' W 122°24'5 5.3
2015-Jul-26 21:34N 37°51' W 122°29'6 5.6
2015-Jul-26 20:34N 37°57' W 122°31'7 0.4
2015-Jul-26 03:34N 37°52' W 122°25'3 3.3
2015-Jul-26 02:33N 37°51' W 122°29'5 5.5
2015-Jul-26 01:33N 37°48' W 122°23'5 5.1
2015-Jul-26 00:33N 37°51' W 122°28'1 0.6
2015-Jul-25 23:33N 37°51' W 122°28'4 3.9
2015-Jul-25 22:34N 37°49' W 122°23'5 4.9
2015-Jul-25 21:34N 37°51' W 122°29'3 0.2
2015-Jul-25 02:33N 37°53' W 122°25'6 5.2
2015-Jul-25 01:29N 37°57' W 122°30'6 6.5
2015-Jul-25 00:33N 37°52' W 122°25'5 4.5
2015-Jul-24 23:34N 37°48' W 122°23'1010.2
2015-Jul-24 22:32N 37°57' W 122°30'4 4.2
2015-Jul-24 21:34N 37°54' W 122°27'4 4.0
2015-Jul-24 20:32N 37°57' W 122°30'9 9.2
2015-Jul-24 19:34N 37°50' W 122°23'9 9.0
2015-Jul-24 18:33N 37°57' W 122°30'6 5.8
2015-Jul-24 17:34N 37°53' W 122°25'5 4.6
2015-Jul-24 16:34N 37°56' W 122°29'1 1.2
2015-Jul-24 15:34N 37°55' W 122°28'8 8.3
2015-Jul-24 14:33N 37°48' W 122°24'5 5.3
2015-Jul-24 13:34N 37°53' W 122°25'6 5.7
2015-Jul-24 12:34N 37°57' W 122°31'6 0.6
2015-Jul-24 02:33N 37°53' W 122°25'6 6.0
2015-Jul-24 01:33N 37°57' W 122°30'6 5.9
2015-Jul-24 00:34N 37°52' W 122°25'5 4.8
2015-Jul-23 23:34N 37°48' W 122°23'1010.1
2015-Jul-23 22:31N 37°57' W 122°30'4 4.5
2015-Jul-23 21:33N 37°54' W 122°26'4 4.3
2015-Jul-23 20:33N 37°57' W 122°31'9 8.7
2015-Jul-23 19:34N 37°50' W 122°23'8 7.5
2015-Jul-23 18:26N 37°57' W 122°30'6 7.0
2015-Jul-23 17:33N 37°52' W 122°25'5 5.1
2015-Jul-23 16:33N 37°56' W 122°29'3 3.2
2015-Jul-23 15:33N 37°54' W 122°26'6 6.3
2015-Jul-23 14:33N 37°48' W 122°24'4 4.2
2015-Jul-23 13:34N 37°52' W 122°24'7 6.9
2015-Jul-23 12:33N 37°57' W 122°31'7 0.7
2015-Jul-23 02:33N 37°52' W 122°24'7 6.7
2015-Jul-23 01:34N 37°57' W 122°30'7 7.4
2015-Jul-23 00:34N 37°51' W 122°25'3 3.2
2015-Jul-22 23:34N 37°48' W 122°23'1010.4
2015-Jul-22 22:33N 37°57' W 122°30'5 4.9
2015-Jul-22 21:34N 37°53' W 122°26'5 4.9
2015-Jul-22 20:34N 37°57' W 122°30'8 8.2
2015-Jul-22 19:34N 37°50' W 122°24'8 8.1
2015-Jul-22 18:33N 37°57' W 122°30'7 7.5
2015-Jul-22 17:34N 37°51' W 122°25'6 6.5
2015-Jul-22 16:33N 37°56' W 122°29'0 0.1
2015-Jul-22 15:33N 37°56' W 122°29'9 9.5
2015-Jul-22 14:33N 37°48' W 122°24'4 3.7
2015-Jul-22 13:34N 37°51' W 122°24'7 7.3
2015-Jul-22 12:33N 37°57' W 122°31'6 0.6
2015-Jul-22 02:34N 37°52' W 122°25'  
Track history (hours):
 
Tides and Currents Weather Stations Pressure Air Temp Water Temp Dewpoint Dewpoint Depression Visibility Wind Speed Wind Dir Waves Ship Positions

Del Norte

Owner: Golden Gate Bridge,Hwy & Transportation District, Larkspur, CA. More information available from US FCC via Universal Licensing System and Coast Guard Vessel Documentation Center.

Last reported at 2015-Aug-01 02:33 UTC. Time now 2015-Aug-02 12:25 UTC.
Position N 37°53' W 122°25'.

Length 48 m.

Type: High speed craft. MMSI: 366990520.

Date/timePositionNaut miles runAvg speedWind from/ knotsBaromVisibWave heightAir tempDewpointWater temp
2015-Aug-01 02:33N 37°53' W 122°25'6 6.0
2015-Aug-01 01:33N 37°57' W 122°30'8 7.5
2015-Aug-01 00:34N 37°51' W 122°25'3 3.0
2015-Jul-31 23:33N 37°48' W 122°24'1010.4
2015-Jul-31 22:33N 37°57' W 122°30'4 4.3
2015-Jul-31 21:34N 37°54' W 122°26'4 4.3
2015-Jul-31 20:33N 37°57' W 122°31'0 0.0
2015-Jul-31 19:33N 37°57' W 122°31'0 0.1
2015-Jul-31 18:33N 37°57' W 122°30'0 0.0
2015-Jul-31 17:33N 37°57' W 122°30'1 1.0
2015-Jul-31 16:33N 37°56' W 122°29'2 2.0
2015-Jul-31 15:34N 37°55' W 122°27'8 7.8
2015-Jul-31 14:33N 37°48' W 122°24'3 3.1
2015-Jul-31 13:33N 37°51' W 122°24'8 7.8
2015-Jul-31 12:33N 37°57' W 122°31'6 0.6
2015-Jul-31 02:33N 37°52' W 122°25'6 6.5
2015-Jul-31 01:33N 37°57' W 122°30'7 6.7
2015-Jul-31 00:34N 37°52' W 122°25'4 4.0
2015-Jul-30 23:34N 37°48' W 122°23'1010.4
2015-Jul-30 22:34N 37°57' W 122°30'4 4.2
2015-Jul-30 21:33N 37°54' W 122°27'4 4.2
2015-Jul-30 20:33N 37°57' W 122°31'9 8.6
2015-Jul-30 19:34N 37°50' W 122°23'9 8.5
2015-Jul-30 18:33N 37°57' W 122°30'6 6.5
2015-Jul-30 17:34N 37°52' W 122°25'5 4.8
2015-Jul-30 16:34N 37°56' W 122°28'0 0.4
2015-Jul-30 15:34N 37°56' W 122°28'9 8.6
2015-Jul-30 14:33N 37°48' W 122°24'4 3.9
2015-Jul-30 13:34N 37°52' W 122°24'7 7.1
2015-Jul-30 12:33N 37°57' W 122°31'6 0.6
2015-Jul-30 02:33N 37°52' W 122°25'6 6.3
2015-Jul-30 01:33N 37°57' W 122°30'6 5.9
2015-Jul-30 00:33N 37°53' W 122°25'4 3.8
2015-Jul-29 23:34N 37°49' W 122°23'9 9.3
2015-Jul-29 22:33N 37°57' W 122°30'2 1.7
2015-Jul-29 21:33N 37°56' W 122°28'2 1.8
2015-Jul-29 20:33N 37°57' W 122°31'1010.5
2015-Jul-29 19:33N 37°48' W 122°23'1010.4
2015-Jul-29 18:33N 37°57' W 122°30'5 4.5
2015-Jul-29 17:34N 37°54' W 122°26'3 2.6
2015-Jul-29 16:33N 37°56' W 122°28'0 0.1
2015-Jul-29 15:34N 37°56' W 122°28'9 8.8
2015-Jul-29 14:33N 37°48' W 122°24'4 3.7
2015-Jul-29 13:34N 37°51' W 122°24'7 7.2
2015-Jul-29 12:33N 37°57' W 122°31'10 1.3
2015-Jul-29 04:33N 37°48' W 122°24'1010.4
2015-Jul-29 03:33N 37°57' W 122°31'7 7.2
2015-Jul-29 02:34N 37°52' W 122°24'7 7.1
2015-Jul-29 01:33N 37°57' W 122°30'5 4.6
2015-Jul-29 00:34N 37°54' W 122°26'6 6.1
2015-Jul-28 23:34N 37°48' W 122°23'1010.4
2015-Jul-28 22:34N 37°57' W 122°30'3 2.7
2015-Jul-28 21:34N 37°55' W 122°28'3 2.7
2015-Jul-28 20:33N 37°57' W 122°30'8 8.1
2015-Jul-28 19:34N 37°51' W 122°24'8 8.1
2015-Jul-28 18:33N 37°57' W 122°30'5 5.2
2015-Jul-28 17:34N 37°53' W 122°26'3 2.6
2015-Jul-28 16:34N 37°55' W 122°28'3 2.5
2015-Jul-28 15:34N 37°57' W 122°30'7 7.0
2015-Jul-28 14:34N 37°51' W 122°25'3 2.5
2015-Jul-28 13:34N 37°49' W 122°23'10 9.6
2015-Jul-28 12:33N 37°57' W 122°31'6 0.6
2015-Jul-28 02:34N 37°52' W 122°25'6 6.4
2015-Jul-28 01:33N 37°57' W 122°30'5 5.0
2015-Jul-28 00:33N 37°53' W 122°26'6 5.8
2015-Jul-27 23:33N 37°48' W 122°23'1010.3
2015-Jul-27 22:33N 37°57' W 122°30'2 1.9
2015-Jul-27 21:34N 37°56' W 122°28'2 2.1
2015-Jul-27 20:33N 37°57' W 122°30'8 7.7
2015-Jul-27 19:34N 37°51' W 122°24'8 7.7
2015-Jul-27 18:33N 37°57' W 122°30'5 5.0
2015-Jul-27 17:34N 37°53' W 122°26'4 3.7
2015-Jul-27 16:34N 37°56' W 122°29'0 0.1
2015-Jul-27 15:33N 37°56' W 122°29'8 8.0
2015-Jul-27 14:34N 37°49' W 122°24'0 0.3
2015-Jul-27 13:34N 37°49' W 122°23'9 9.4
2015-Jul-27 12:33N 37°57' W 122°31'0 0.0
2015-Jul-27 04:11N 37°57' W 122°31'711.8
2015-Jul-27 03:34N 37°51' W 122°24'4 3.6
2015-Jul-27 02:33N 37°51' W 122°29'5 5.4
2015-Jul-27 01:33N 37°48' W 122°23'5 5.3
2015-Jul-27 00:34N 37°51' W 122°28'5 5.1
2015-Jul-26 23:34N 37°48' W 122°23'1 0.7
2015-Jul-26 22:33N 37°48' W 122°24'5 5.3
2015-Jul-26 21:34N 37°51' W 122°29'6 5.6
2015-Jul-26 20:34N 37°57' W 122°31'7 0.4
2015-Jul-26 03:34N 37°52' W 122°25'3 3.3
2015-Jul-26 02:33N 37°51' W 122°29'5 5.5
2015-Jul-26 01:33N 37°48' W 122°23'5 5.1
2015-Jul-26 00:33N 37°51' W 122°28'1 0.6
2015-Jul-25 23:33N 37°51' W 122°28'4 3.9
2015-Jul-25 22:34N 37°49' W 122°23'5 4.9
2015-Jul-25 21:34N 37°51' W 122°29'3 0.2
2015-Jul-25 02:33N 37°53' W 122°25'6 5.2
2015-Jul-25 01:29N 37°57' W 122°30'6 6.5
2015-Jul-25 00:33N 37°52' W 122°25'5 4.5
2015-Jul-24 23:34N 37°48' W 122°23'1010.2
2015-Jul-24 22:32N 37°57' W 122°30'4 4.2
2015-Jul-24 21:34N 37°54' W 122°27'4 4.0
2015-Jul-24 20:32N 37°57' W 122°30'9 9.2
2015-Jul-24 19:34N 37°50' W 122°23'9 9.0
2015-Jul-24 18:33N 37°57' W 122°30'6 5.8
2015-Jul-24 17:34N 37°53' W 122°25'5 4.6
2015-Jul-24 16:34N 37°56' W 122°29'1 1.2
2015-Jul-24 15:34N 37°55' W 122°28'8 8.3
2015-Jul-24 14:33N 37°48' W 122°24'5 5.3
2015-Jul-24 13:34N 37°53' W 122°25'6 5.7
2015-Jul-24 12:34N 37°57' W 122°31'6 0.6
2015-Jul-24 02:33N 37°53' W 122°25'6 6.0
2015-Jul-24 01:33N 37°57' W 122°30'6 5.9
2015-Jul-24 00:34N 37°52' W 122°25'5 4.8
2015-Jul-23 23:34N 37°48' W 122°23'1010.1
2015-Jul-23 22:31N 37°57' W 122°30'4 4.5
2015-Jul-23 21:33N 37°54' W 122°26'4 4.3
2015-Jul-23 20:33N 37°57' W 122°31'9 8.7
2015-Jul-23 19:34N 37°50' W 122°23'8 7.5
2015-Jul-23 18:26N 37°57' W 122°30'6 7.0
2015-Jul-23 17:33N 37°52' W 122°25'5 5.1
2015-Jul-23 16:33N 37°56' W 122°29'3 3.2
2015-Jul-23 15:33N 37°54' W 122°26'6 6.3
2015-Jul-23 14:33N 37°48' W 122°24'4 4.2
2015-Jul-23 13:34N 37°52' W 122°24'7 6.9
2015-Jul-23 12:33N 37°57' W 122°31'7 0.7
2015-Jul-23 02:33N 37°52' W 122°24'7 6.7
2015-Jul-23 01:34N 37°57' W 122°30'7 7.4
2015-Jul-23 00:34N 37°51' W 122°25'3 3.2
2015-Jul-22 23:34N 37°48' W 122°23'1010.4
2015-Jul-22 22:33N 37°57' W 122°30'5 4.9
2015-Jul-22 21:34N 37°53' W 122°26'5 4.9
2015-Jul-22 20:34N 37°57' W 122°30'8 8.2
2015-Jul-22 19:34N 37°50' W 122°24'8 8.1
2015-Jul-22 18:33N 37°57' W 122°30'7 7.5
2015-Jul-22 17:34N 37°51' W 122°25'6 6.5
2015-Jul-22 16:33N 37°56' W 122°29'0 0.1
2015-Jul-22 15:33N 37°56' W 122°29'9 9.5
2015-Jul-22 14:33N 37°48' W 122°24'4 3.7
2015-Jul-22 13:34N 37°51' W 122°24'7 7.3
2015-Jul-22 12:33N 37°57' W 122°31'6 0.6
2015-Jul-22 02:34N 37°52' W 122°25'  

Dump ship's entire track history